sensor_id;sensor_type;location;lat;lon;timestamp;P1;durP1;ratioP1;P2;durP2;ratioP2
6031;SDS011;3044;43.232;27.972;2023-08-06T00:00:00;18.17;;;11.90;;
6031;SDS011;3044;43.232;27.972;2023-08-06T00:02:29;25.50;;;14.10;;
6031;SDS011;3044;43.232;27.972;2023-08-06T00:04:56;23.73;;;13.07;;
6031;SDS011;3044;43.232;27.972;2023-08-06T00:07:23;27.60;;;12.10;;
6031;SDS011;3044;43.232;27.972;2023-08-06T00:09:50;30.37;;;14.07;;
6031;SDS011;3044;43.232;27.972;2023-08-06T00:12:18;23.50;;;13.30;;
6031;SDS011;3044;43.232;27.972;2023-08-06T00:14:45;18.57;;;12.43;;
6031;SDS011;3044;43.232;27.972;2023-08-06T00:17:12;21.67;;;13.13;;
6031;SDS011;3044;43.232;27.972;2023-08-06T00:19:41;19.17;;;11.43;;
6031;SDS011;3044;43.232;27.972;2023-08-06T00:22:08;23.63;;;12.20;;
6031;SDS011;3044;43.232;27.972;2023-08-06T00:24:35;19.27;;;13.30;;
6031;SDS011;3044;43.232;27.972;2023-08-06T00:27:03;22.57;;;12.20;;
6031;SDS011;3044;43.232;27.972;2023-08-06T00:29:30;19.63;;;13.50;;
6031;SDS011;3044;43.232;27.972;2023-08-06T00:31:57;16.97;;;13.50;;
6031;SDS011;3044;43.232;27.972;2023-08-06T00:34:24;23.00;;;13.57;;
6031;SDS011;3044;43.232;27.972;2023-08-06T00:36:53;18.67;;;14.50;;
6031;SDS011;3044;43.232;27.972;2023-08-06T00:39:20;23.93;;;13.60;;
6031;SDS011;3044;43.232;27.972;2023-08-06T00:41:48;21.00;;;12.87;;
6031;SDS011;3044;43.232;27.972;2023-08-06T00:44:15;25.43;;;14.20;;
6031;SDS011;3044;43.232;27.972;2023-08-06T00:46:42;17.20;;;13.00;;
6031;SDS011;3044;43.232;27.972;2023-08-06T00:49:09;17.30;;;13.50;;
6031;SDS011;3044;43.232;27.972;2023-08-06T00:51:36;24.33;;;13.73;;
6031;SDS011;3044;43.232;27.972;2023-08-06T00:54:05;25.30;;;14.40;;
6031;SDS011;3044;43.232;27.972;2023-08-06T00:56:32;25.27;;;13.80;;
6031;SDS011;3044;43.232;27.972;2023-08-06T00:59:02;20.03;;;13.43;;
6031;SDS011;3044;43.232;27.972;2023-08-06T01:01:29;16.20;;;12.87;;
6031;SDS011;3044;43.232;27.972;2023-08-06T01:03:57;19.10;;;14.10;;
6031;SDS011;3044;43.232;27.972;2023-08-06T01:06:28;18.20;;;13.00;;
6031;SDS011;3044;43.232;27.972;2023-08-06T01:09:03;28.00;;;13.67;;
6031;SDS011;3044;43.232;27.972;2023-08-06T01:11:43;18.63;;;14.00;;
6031;SDS011;3044;43.232;27.972;2023-08-06T01:14:22;23.73;;;14.40;;
6031;SDS011;3044;43.232;27.972;2023-08-06T01:16:54;15.70;;;12.90;;
6031;SDS011;3044;43.232;27.972;2023-08-06T01:19:23;16.90;;;13.00;;
6031;SDS011;3044;43.232;27.972;2023-08-06T01:21:52;22.00;;;13.43;;
6031;SDS011;3044;43.232;27.972;2023-08-06T01:24:19;21.60;;;12.70;;
6031;SDS011;3044;43.232;27.972;2023-08-06T01:26:48;16.70;;;13.20;;
6031;SDS011;3044;43.232;27.972;2023-08-06T01:29:23;15.93;;;11.97;;
6031;SDS011;3044;43.232;27.972;2023-08-06T01:31:54;21.43;;;13.50;;
6031;SDS011;3044;43.232;27.972;2023-08-06T01:34:25;20.60;;;12.83;;
6031;SDS011;3044;43.232;27.972;2023-08-06T01:36:56;25.43;;;13.30;;
6031;SDS011;3044;43.232;27.972;2023-08-06T01:39:23;24.43;;;13.20;;
6031;SDS011;3044;43.232;27.972;2023-08-06T01:41:50;19.27;;;13.10;;
6031;SDS011;3044;43.232;27.972;2023-08-06T01:44:17;19.13;;;14.23;;
6031;SDS011;3044;43.232;27.972;2023-08-06T01:46:45;21.60;;;13.63;;
6031;SDS011;3044;43.232;27.972;2023-08-06T01:49:12;19.30;;;13.70;;
6031;SDS011;3044;43.232;27.972;2023-08-06T01:51:39;20.70;;;14.40;;
6031;SDS011;3044;43.232;27.972;2023-08-06T01:54:07;25.00;;;14.27;;
6031;SDS011;3044;43.232;27.972;2023-08-06T01:56:34;24.40;;;14.20;;
6031;SDS011;3044;43.232;27.972;2023-08-06T01:59:02;21.50;;;13.10;;
6031;SDS011;3044;43.232;27.972;2023-08-06T02:01:29;22.77;;;12.27;;
6031;SDS011;3044;43.232;27.972;2023-08-06T02:03:56;18.23;;;12.77;;
6031;SDS011;3044;43.232;27.972;2023-08-06T02:06:24;20.00;;;13.30;;
6031;SDS011;3044;43.232;27.972;2023-08-06T02:08:51;17.60;;;13.30;;
6031;SDS011;3044;43.232;27.972;2023-08-06T02:11:20;17.77;;;14.37;;
6031;SDS011;3044;43.232;27.972;2023-08-06T02:13:47;38.83;;;13.57;;
6031;SDS011;3044;43.232;27.972;2023-08-06T02:16:14;23.67;;;13.73;;
6031;SDS011;3044;43.232;27.972;2023-08-06T02:18:41;23.40;;;13.63;;
6031;SDS011;3044;43.232;27.972;2023-08-06T02:21:08;23.00;;;13.90;;
6031;SDS011;3044;43.232;27.972;2023-08-06T02:23:35;22.33;;;13.83;;
6031;SDS011;3044;43.232;27.972;2023-08-06T02:26:03;22.87;;;14.33;;
6031;SDS011;3044;43.232;27.972;2023-08-06T02:28:32;25.43;;;14.87;;
6031;SDS011;3044;43.232;27.972;2023-08-06T02:30:59;19.60;;;14.60;;
6031;SDS011;3044;43.232;27.972;2023-08-06T02:33:26;38.80;;;14.00;;
6031;SDS011;3044;43.232;27.972;2023-08-06T02:35:58;22.67;;;14.37;;
6031;SDS011;3044;43.232;27.972;2023-08-06T02:38:26;27.00;;;13.10;;
6031;SDS011;3044;43.232;27.972;2023-08-06T02:40:53;27.93;;;15.00;;
6031;SDS011;3044;43.232;27.972;2023-08-06T02:43:20;24.90;;;13.50;;
6031;SDS011;3044;43.232;27.972;2023-08-06T02:45:49;20.43;;;13.70;;
6031;SDS011;3044;43.232;27.972;2023-08-06T02:48:16;19.73;;;15.70;;
6031;SDS011;3044;43.232;27.972;2023-08-06T02:50:43;18.97;;;14.40;;
6031;SDS011;3044;43.232;27.972;2023-08-06T02:53:10;24.63;;;13.60;;
6031;SDS011;3044;43.232;27.972;2023-08-06T02:55:37;17.70;;;13.27;;
6031;SDS011;3044;43.232;27.972;2023-08-06T02:58:04;15.13;;;11.37;;
6031;SDS011;3044;43.232;27.972;2023-08-06T03:00:31;25.43;;;13.70;;
6031;SDS011;3044;43.232;27.972;2023-08-06T03:03:00;23.20;;;13.93;;
6031;SDS011;3044;43.232;27.972;2023-08-06T03:05:27;25.30;;;13.43;;
6031;SDS011;3044;43.232;27.972;2023-08-06T03:07:54;14.43;;;11.27;;
6031;SDS011;3044;43.232;27.972;2023-08-06T03:10:21;23.47;;;12.27;;
6031;SDS011;3044;43.232;27.972;2023-08-06T03:12:48;14.60;;;11.47;;
6031;SDS011;3044;43.232;27.972;2023-08-06T03:15:15;21.53;;;11.67;;
6031;SDS011;3044;43.232;27.972;2023-08-06T03:17:42;18.93;;;12.60;;
6031;SDS011;3044;43.232;27.972;2023-08-06T03:20:11;17.57;;;12.13;;
6031;SDS011;3044;43.232;27.972;2023-08-06T03:22:38;15.60;;;12.17;;
6031;SDS011;3044;43.232;27.972;2023-08-06T03:25:06;24.57;;;12.97;;
6031;SDS011;3044;43.232;27.972;2023-08-06T03:27:33;16.47;;;12.07;;
6031;SDS011;3044;43.232;27.972;2023-08-06T03:30:00;22.67;;;13.90;;
6031;SDS011;3044;43.232;27.972;2023-08-06T03:32:27;17.47;;;12.63;;
6031;SDS011;3044;43.232;27.972;2023-08-06T03:34:54;15.13;;;13.73;;
6031;SDS011;3044;43.232;27.972;2023-08-06T03:37:23;22.93;;;13.53;;
6031;SDS011;3044;43.232;27.972;2023-08-06T03:39:50;14.90;;;12.30;;
6031;SDS011;3044;43.232;27.972;2023-08-06T03:42:17;23.63;;;13.17;;
6031;SDS011;3044;43.232;27.972;2023-08-06T03:44:44;15.50;;;10.97;;
6031;SDS011;3044;43.232;27.972;2023-08-06T03:47:12;18.73;;;12.10;;
6031;SDS011;3044;43.232;27.972;2023-08-06T03:49:39;16.00;;;11.60;;
6031;SDS011;3044;43.232;27.972;2023-08-06T03:52:07;16.10;;;11.83;;
6031;SDS011;3044;43.232;27.972;2023-08-06T03:54:35;29.40;;;12.37;;
6031;SDS011;3044;43.232;27.972;2023-08-06T03:57:03;15.30;;;11.47;;
6031;SDS011;3044;43.232;27.972;2023-08-06T03:59:30;16.17;;;11.60;;
6031;SDS011;3044;43.232;27.972;2023-08-06T04:01:57;17.00;;;10.70;;
6031;SDS011;3044;43.232;27.972;2023-08-06T04:04:24;22.03;;;10.90;;
6031;SDS011;3044;43.232;27.972;2023-08-06T04:06:51;21.23;;;10.63;;
6031;SDS011;3044;43.232;27.972;2023-08-06T04:09:18;15.23;;;9.67;;
6031;SDS011;3044;43.232;27.972;2023-08-06T04:11:47;11.00;;;9.17;;
6031;SDS011;3044;43.232;27.972;2023-08-06T04:14:14;10.63;;;8.00;;
6031;SDS011;3044;43.232;27.972;2023-08-06T04:16:41;8.97;;;7.70;;
6031;SDS011;3044;43.232;27.972;2023-08-06T04:19:08;18.83;;;7.80;;
6031;SDS011;3044;43.232;27.972;2023-08-06T04:21:36;14.60;;;8.53;;
6031;SDS011;3044;43.232;27.972;2023-08-06T04:24:03;12.30;;;7.77;;
6031;SDS011;3044;43.232;27.972;2023-08-06T04:26:30;14.17;;;7.70;;
6031;SDS011;3044;43.232;27.972;2023-08-06T04:28:59;15.90;;;6.63;;
6031;SDS011;3044;43.232;27.972;2023-08-06T04:31:26;13.93;;;7.13;;
6031;SDS011;3044;43.232;27.972;2023-08-06T04:33:53;12.10;;;7.10;;
6031;SDS011;3044;43.232;27.972;2023-08-06T04:36:20;15.20;;;7.13;;
6031;SDS011;3044;43.232;27.972;2023-08-06T04:38:47;15.00;;;7.83;;
6031;SDS011;3044;43.232;27.972;2023-08-06T04:41:14;8.10;;;6.67;;
6031;SDS011;3044;43.232;27.972;2023-08-06T04:43:41;8.00;;;6.20;;
6031;SDS011;3044;43.232;27.972;2023-08-06T04:46:09;13.53;;;7.00;;
6031;SDS011;3044;43.232;27.972;2023-08-06T04:48:37;13.80;;;6.37;;
6031;SDS011;3044;43.232;27.972;2023-08-06T04:51:04;6.63;;;6.00;;
6031;SDS011;3044;43.232;27.972;2023-08-06T04:53:31;9.17;;;6.57;;
6031;SDS011;3044;43.232;27.972;2023-08-06T04:55:58;10.70;;;6.17;;
6031;SDS011;3044;43.232;27.972;2023-08-06T04:58:25;14.90;;;7.20;;
6031;SDS011;3044;43.232;27.972;2023-08-06T05:00:52;11.47;;;6.80;;
6031;SDS011;3044;43.232;27.972;2023-08-06T05:03:22;8.10;;;6.10;;
6031;SDS011;3044;43.232;27.972;2023-08-06T05:05:49;13.57;;;6.87;;
6031;SDS011;3044;43.232;27.972;2023-08-06T05:08:16;13.53;;;7.03;;
6031;SDS011;3044;43.232;27.972;2023-08-06T05:10:43;13.73;;;5.87;;
6031;SDS011;3044;43.232;27.972;2023-08-06T05:13:11;14.43;;;6.80;;
6031;SDS011;3044;43.232;27.972;2023-08-06T05:15:38;12.23;;;5.80;;
6031;SDS011;3044;43.232;27.972;2023-08-06T05:18:07;16.53;;;7.20;;
6031;SDS011;3044;43.232;27.972;2023-08-06T05:20:37;15.60;;;7.10;;
6031;SDS011;3044;43.232;27.972;2023-08-06T05:23:04;20.17;;;7.20;;
6031;SDS011;3044;43.232;27.972;2023-08-06T05:25:31;14.60;;;6.80;;
6031;SDS011;3044;43.232;27.972;2023-08-06T05:28:00;8.97;;;5.97;;
6031;SDS011;3044;43.232;27.972;2023-08-06T05:30:28;13.23;;;7.20;;
6031;SDS011;3044;43.232;27.972;2023-08-06T05:32:55;16.57;;;6.77;;
6031;SDS011;3044;43.232;27.972;2023-08-06T05:35:22;10.53;;;6.23;;
6031;SDS011;3044;43.232;27.972;2023-08-06T05:37:51;11.53;;;6.50;;
6031;SDS011;3044;43.232;27.972;2023-08-06T05:40:18;9.97;;;5.83;;
6031;SDS011;3044;43.232;27.972;2023-08-06T05:42:45;11.83;;;5.10;;
6031;SDS011;3044;43.232;27.972;2023-08-06T05:45:12;11.53;;;6.67;;
6031;SDS011;3044;43.232;27.972;2023-08-06T05:47:40;7.80;;;5.43;;
6031;SDS011;3044;43.232;27.972;2023-08-06T05:50:07;10.73;;;6.67;;
6031;SDS011;3044;43.232;27.972;2023-08-06T05:52:35;6.93;;;6.30;;
6031;SDS011;3044;43.232;27.972;2023-08-06T05:55:04;7.57;;;6.07;;
6031;SDS011;3044;43.232;27.972;2023-08-06T05:57:32;7.10;;;6.23;;
6031;SDS011;3044;43.232;27.972;2023-08-06T05:59:59;7.83;;;6.40;;
6031;SDS011;3044;43.232;27.972;2023-08-06T06:02:26;12.47;;;6.83;;
6031;SDS011;3044;43.232;27.972;2023-08-06T06:04:53;13.40;;;6.73;;
6031;SDS011;3044;43.232;27.972;2023-08-06T06:07:20;9.77;;;6.30;;
6031;SDS011;3044;43.232;27.972;2023-08-06T06:09:47;17.83;;;7.10;;
6031;SDS011;3044;43.232;27.972;2023-08-06T06:12:16;10.13;;;6.30;;
6031;SDS011;3044;43.232;27.972;2023-08-06T06:14:43;8.20;;;6.37;;
6031;SDS011;3044;43.232;27.972;2023-08-06T06:17:10;11.60;;;6.10;;
6031;SDS011;3044;43.232;27.972;2023-08-06T06:19:37;13.67;;;6.60;;
6031;SDS011;3044;43.232;27.972;2023-08-06T06:22:04;22.00;;;6.40;;
6031;SDS011;3044;43.232;27.972;2023-08-06T06:24:32;10.20;;;6.00;;
6031;SDS011;3044;43.232;27.972;2023-08-06T06:26:59;12.23;;;6.33;;
6031;SDS011;3044;43.232;27.972;2023-08-06T06:29:28;12.13;;;5.40;;
6031;SDS011;3044;43.232;27.972;2023-08-06T06:31:55;6.63;;;5.50;;
6031;SDS011;3044;43.232;27.972;2023-08-06T06:34:22;8.97;;;5.80;;
6031;SDS011;3044;43.232;27.972;2023-08-06T06:36:49;12.83;;;4.43;;
6031;SDS011;3044;43.232;27.972;2023-08-06T06:39:17;7.60;;;5.00;;
6031;SDS011;3044;43.232;27.972;2023-08-06T06:41:44;7.10;;;5.27;;
6031;SDS011;3044;43.232;27.972;2023-08-06T06:44:13;11.00;;;5.87;;
6031;SDS011;3044;43.232;27.972;2023-08-06T06:46:42;10.93;;;6.10;;
6031;SDS011;3044;43.232;27.972;2023-08-06T06:49:09;13.67;;;5.27;;
6031;SDS011;3044;43.232;27.972;2023-08-06T06:51:36;12.77;;;5.73;;
6031;SDS011;3044;43.232;27.972;2023-08-06T06:54:03;11.90;;;5.10;;
6031;SDS011;3044;43.232;27.972;2023-08-06T06:56:30;12.57;;;5.63;;
6031;SDS011;3044;43.232;27.972;2023-08-06T06:58:57;14.60;;;6.77;;
6031;SDS011;3044;43.232;27.972;2023-08-06T07:01:24;14.37;;;6.20;;
6031;SDS011;3044;43.232;27.972;2023-08-06T07:03:53;19.87;;;5.97;;
6031;SDS011;3044;43.232;27.972;2023-08-06T07:06:20;5.90;;;5.33;;
6031;SDS011;3044;43.232;27.972;2023-08-06T07:08:47;9.33;;;5.90;;
6031;SDS011;3044;43.232;27.972;2023-08-06T07:11:14;10.27;;;5.70;;
6031;SDS011;3044;43.232;27.972;2023-08-06T07:13:41;16.73;;;6.47;;
6031;SDS011;3044;43.232;27.972;2023-08-06T07:16:08;11.43;;;6.20;;
6031;SDS011;3044;43.232;27.972;2023-08-06T07:18:35;8.07;;;5.73;;
6031;SDS011;3044;43.232;27.972;2023-08-06T07:21:04;7.10;;;5.77;;
6031;SDS011;3044;43.232;27.972;2023-08-06T07:23:31;10.80;;;6.00;;
6031;SDS011;3044;43.232;27.972;2023-08-06T07:25:58;8.37;;;5.80;;
6031;SDS011;3044;43.232;27.972;2023-08-06T07:28:25;9.90;;;5.63;;
6031;SDS011;3044;43.232;27.972;2023-08-06T07:30:52;14.20;;;5.47;;
6031;SDS011;3044;43.232;27.972;2023-08-06T07:33:19;6.30;;;5.70;;
6031;SDS011;3044;43.232;27.972;2023-08-06T07:35:46;10.43;;;5.20;;
6031;SDS011;3044;43.232;27.972;2023-08-06T07:38:15;12.83;;;5.63;;
6031;SDS011;3044;43.232;27.972;2023-08-06T07:40:42;8.80;;;5.30;;
6031;SDS011;3044;43.232;27.972;2023-08-06T07:43:09;10.17;;;5.70;;
6031;SDS011;3044;43.232;27.972;2023-08-06T07:45:36;8.03;;;5.33;;
6031;SDS011;3044;43.232;27.972;2023-08-06T07:48:04;7.63;;;4.90;;
6031;SDS011;3044;43.232;27.972;2023-08-06T07:50:31;11.73;;;6.13;;
6031;SDS011;3044;43.232;27.972;2023-08-06T07:52:58;18.30;;;6.60;;
6031;SDS011;3044;43.232;27.972;2023-08-06T07:55:27;22.53;;;6.80;;
6031;SDS011;3044;43.232;27.972;2023-08-06T07:57:54;7.47;;;5.00;;
6031;SDS011;3044;43.232;27.972;2023-08-06T08:00:21;9.13;;;5.03;;
6031;SDS011;3044;43.232;27.972;2023-08-06T08:02:48;9.20;;;5.30;;
6031;SDS011;3044;43.232;27.972;2023-08-06T08:05:15;6.73;;;5.90;;
6031;SDS011;3044;43.232;27.972;2023-08-06T08:07:42;9.27;;;5.20;;
6031;SDS011;3044;43.232;27.972;2023-08-06T08:10:10;7.20;;;5.20;;
6031;SDS011;3044;43.232;27.972;2023-08-06T08:12:38;9.23;;;5.30;;
6031;SDS011;3044;43.232;27.972;2023-08-06T08:15:06;11.80;;;4.93;;
6031;SDS011;3044;43.232;27.972;2023-08-06T08:17:33;9.47;;;5.97;;
6031;SDS011;3044;43.232;27.972;2023-08-06T08:20:00;12.77;;;5.80;;
6031;SDS011;3044;43.232;27.972;2023-08-06T08:22:28;15.50;;;5.20;;
6031;SDS011;3044;43.232;27.972;2023-08-06T08:24:55;10.33;;;5.43;;
6031;SDS011;3044;43.232;27.972;2023-08-06T08:27:22;13.00;;;5.17;;
6031;SDS011;3044;43.232;27.972;2023-08-06T08:29:51;14.10;;;5.17;;
6031;SDS011;3044;43.232;27.972;2023-08-06T08:32:18;8.20;;;4.83;;
6031;SDS011;3044;43.232;27.972;2023-08-06T08:34:45;8.53;;;4.73;;
6031;SDS011;3044;43.232;27.972;2023-08-06T08:37:12;9.57;;;4.60;;
6031;SDS011;3044;43.232;27.972;2023-08-06T08:39:40;12.13;;;4.93;;
6031;SDS011;3044;43.232;27.972;2023-08-06T08:42:07;7.70;;;4.83;;
6031;SDS011;3044;43.232;27.972;2023-08-06T08:44:36;9.30;;;4.90;;
6031;SDS011;3044;43.232;27.972;2023-08-06T08:47:06;11.13;;;4.50;;
6031;SDS011;3044;43.232;27.972;2023-08-06T08:49:34;5.97;;;4.43;;
6031;SDS011;3044;43.232;27.972;2023-08-06T08:52:02;7.13;;;5.40;;
6031;SDS011;3044;43.232;27.972;2023-08-06T08:54:32;9.57;;;4.93;;
6031;SDS011;3044;43.232;27.972;2023-08-06T08:57:00;8.47;;;5.73;;
6031;SDS011;3044;43.232;27.972;2023-08-06T08:59:28;9.20;;;4.47;;
6031;SDS011;3044;43.232;27.972;2023-08-06T09:01:55;8.83;;;5.20;;
6031;SDS011;3044;43.232;27.972;2023-08-06T09:04:24;7.13;;;5.20;;
6031;SDS011;3044;43.232;27.972;2023-08-06T09:06:54;5.37;;;4.47;;
6031;SDS011;3044;43.232;27.972;2023-08-06T09:09:25;8.60;;;3.73;;
6031;SDS011;3044;43.232;27.972;2023-08-06T09:11:54;8.47;;;5.30;;
6031;SDS011;3044;43.232;27.972;2023-08-06T09:14:27;7.93;;;4.33;;
6031;SDS011;3044;43.232;27.972;2023-08-06T09:16:54;10.83;;;5.30;;
6031;SDS011;3044;43.232;27.972;2023-08-06T09:19:21;15.57;;;5.60;;
6031;SDS011;3044;43.232;27.972;2023-08-06T09:21:50;5.90;;;4.97;;
6031;SDS011;3044;43.232;27.972;2023-08-06T09:24:18;7.10;;;5.57;;
6031;SDS011;3044;43.232;27.972;2023-08-06T09:26:45;10.93;;;5.20;;
6031;SDS011;3044;43.232;27.972;2023-08-06T09:29:12;4.93;;;4.53;;
6031;SDS011;3044;43.232;27.972;2023-08-06T09:31:40;9.80;;;5.50;;
6031;SDS011;3044;43.232;27.972;2023-08-06T09:34:10;4.67;;;4.17;;
6031;SDS011;3044;43.232;27.972;2023-08-06T09:36:39;7.53;;;3.70;;
6031;SDS011;3044;43.232;27.972;2023-08-06T09:39:13;6.73;;;4.53;;
6031;SDS011;3044;43.232;27.972;2023-08-06T09:41:41;7.93;;;5.10;;
6031;SDS011;3044;43.232;27.972;2023-08-06T09:44:15;7.03;;;4.20;;
6031;SDS011;3044;43.232;27.972;2023-08-06T09:46:47;13.33;;;4.37;;
6031;SDS011;3044;43.232;27.972;2023-08-06T09:49:14;6.50;;;5.27;;
6031;SDS011;3044;43.232;27.972;2023-08-06T09:51:42;15.10;;;4.27;;
6031;SDS011;3044;43.232;27.972;2023-08-06T09:54:10;10.33;;;4.70;;
6031;SDS011;3044;43.232;27.972;2023-08-06T09:56:40;13.13;;;4.93;;
6031;SDS011;3044;43.232;27.972;2023-08-06T09:59:09;14.70;;;5.00;;
6031;SDS011;3044;43.232;27.972;2023-08-06T10:01:37;5.37;;;4.40;;
6031;SDS011;3044;43.232;27.972;2023-08-06T10:04:04;10.87;;;5.17;;
6031;SDS011;3044;43.232;27.972;2023-08-06T10:06:34;10.50;;;4.63;;
6031;SDS011;3044;43.232;27.972;2023-08-06T10:09:02;17.63;;;5.30;;
6031;SDS011;3044;43.232;27.972;2023-08-06T10:11:29;6.33;;;4.13;;
6031;SDS011;3044;43.232;27.972;2023-08-06T10:14:00;8.87;;;5.10;;
6031;SDS011;3044;43.232;27.972;2023-08-06T10:16:32;12.57;;;5.00;;
6031;SDS011;3044;43.232;27.972;2023-08-06T10:19:00;13.30;;;4.67;;
6031;SDS011;3044;43.232;27.972;2023-08-06T10:21:28;14.33;;;4.83;;
6031;SDS011;3044;43.232;27.972;2023-08-06T10:23:57;14.57;;;4.60;;
6031;SDS011;3044;43.232;27.972;2023-08-06T10:26:27;12.10;;;5.40;;
6031;SDS011;3044;43.232;27.972;2023-08-06T10:28:55;7.63;;;4.40;;
6031;SDS011;3044;43.232;27.972;2023-08-06T10:34:21;8.60;;;5.07;;
6031;SDS011;3044;43.232;27.972;2023-08-06T10:36:48;7.70;;;5.10;;
6031;SDS011;3044;43.232;27.972;2023-08-06T10:39:15;4.73;;;4.23;;
6031;SDS011;3044;43.232;27.972;2023-08-06T10:41:42;6.30;;;4.40;;
6031;SDS011;3044;43.232;27.972;2023-08-06T10:44:10;4.87;;;4.20;;
6031;SDS011;3044;43.232;27.972;2023-08-06T10:46:37;6.10;;;4.50;;
6031;SDS011;3044;43.232;27.972;2023-08-06T10:49:06;8.13;;;4.43;;
6031;SDS011;3044;43.232;27.972;2023-08-06T10:51:33;17.07;;;5.23;;
6031;SDS011;3044;43.232;27.972;2023-08-06T10:54:01;10.40;;;5.00;;
6031;SDS011;3044;43.232;27.972;2023-08-06T10:56:29;9.03;;;4.90;;
6031;SDS011;3044;43.232;27.972;2023-08-06T10:58:56;7.93;;;5.70;;
6031;SDS011;3044;43.232;27.972;2023-08-06T11:01:24;8.10;;;5.77;;
6031;SDS011;3044;43.232;27.972;2023-08-06T11:03:55;5.57;;;4.90;;
6031;SDS011;3044;43.232;27.972;2023-08-06T11:06:24;14.53;;;5.17;;
6031;SDS011;3044;43.232;27.972;2023-08-06T11:08:53;13.50;;;4.90;;
6031;SDS011;3044;43.232;27.972;2023-08-06T11:11:22;6.37;;;4.93;;
6031;SDS011;3044;43.232;27.972;2023-08-06T11:13:50;6.93;;;4.97;;
6031;SDS011;3044;43.232;27.972;2023-08-06T11:16:18;9.10;;;5.40;;
6031;SDS011;3044;43.232;27.972;2023-08-06T11:18:46;12.50;;;5.30;;
6031;SDS011;3044;43.232;27.972;2023-08-06T11:21:13;8.30;;;5.90;;
6031;SDS011;3044;43.232;27.972;2023-08-06T11:23:42;6.13;;;5.30;;
6031;SDS011;3044;43.232;27.972;2023-08-06T11:26:09;8.40;;;5.80;;
6031;SDS011;3044;43.232;27.972;2023-08-06T11:28:36;9.53;;;5.43;;
6031;SDS011;3044;43.232;27.972;2023-08-06T11:31:03;6.17;;;5.30;;
6031;SDS011;3044;43.232;27.972;2023-08-06T11:33:31;6.50;;;5.70;;
6031;SDS011;3044;43.232;27.972;2023-08-06T11:35:58;5.67;;;5.07;;
6031;SDS011;3044;43.232;27.972;2023-08-06T11:38:26;7.13;;;5.30;;
6031;SDS011;3044;43.232;27.972;2023-08-06T11:40:55;5.50;;;5.03;;
6031;SDS011;3044;43.232;27.972;2023-08-06T11:43:22;10.80;;;6.60;;
6031;SDS011;3044;43.232;27.972;2023-08-06T11:45:50;11.43;;;5.30;;
6031;SDS011;3044;43.232;27.972;2023-08-06T11:48:19;9.07;;;4.73;;
6031;SDS011;3044;43.232;27.972;2023-08-06T11:50:46;6.43;;;4.90;;
6031;SDS011;3044;43.232;27.972;2023-08-06T11:53:13;7.70;;;5.13;;
6031;SDS011;3044;43.232;27.972;2023-08-06T11:55:41;8.70;;;6.07;;
6031;SDS011;3044;43.232;27.972;2023-08-06T11:58:10;9.93;;;6.10;;
6031;SDS011;3044;43.232;27.972;2023-08-06T12:00:38;15.00;;;7.00;;
6031;SDS011;3044;43.232;27.972;2023-08-06T12:03:05;6.97;;;5.73;;
6031;SDS011;3044;43.232;27.972;2023-08-06T12:05:33;10.83;;;7.03;;
6031;SDS011;3044;43.232;27.972;2023-08-06T12:08:00;10.00;;;5.30;;
6031;SDS011;3044;43.232;27.972;2023-08-06T12:10:29;9.20;;;6.53;;
6031;SDS011;3044;43.232;27.972;2023-08-06T12:12:57;9.80;;;6.53;;
6031;SDS011;3044;43.232;27.972;2023-08-06T12:15:26;17.63;;;7.27;;
6031;SDS011;3044;43.232;27.972;2023-08-06T12:17:53;12.67;;;5.83;;
6031;SDS011;3044;43.232;27.972;2023-08-06T12:20:20;12.70;;;5.90;;
6031;SDS011;3044;43.232;27.972;2023-08-06T12:22:47;4.00;;;3.07;;
6031;SDS011;3044;43.232;27.972;2023-08-06T12:25:14;3.00;;;2.50;;
6031;SDS011;3044;43.232;27.972;2023-08-06T12:27:42;5.10;;;2.90;;
6031;SDS011;3044;43.232;27.972;2023-08-06T12:30:11;5.53;;;3.07;;
6031;SDS011;3044;43.232;27.972;2023-08-06T12:32:40;9.97;;;3.20;;
6031;SDS011;3044;43.232;27.972;2023-08-06T12:35:09;8.20;;;4.13;;
6031;SDS011;3044;43.232;27.972;2023-08-06T12:37:39;10.23;;;3.60;;
6031;SDS011;3044;43.232;27.972;2023-08-06T12:40:09;3.40;;;3.10;;
6031;SDS011;3044;43.232;27.972;2023-08-06T12:42:36;13.43;;;3.73;;
6031;SDS011;3044;43.232;27.972;2023-08-06T12:45:04;17.73;;;5.00;;
6031;SDS011;3044;43.232;27.972;2023-08-06T12:47:31;7.50;;;3.77;;
6031;SDS011;3044;43.232;27.972;2023-08-06T12:50:00;5.90;;;3.83;;
6031;SDS011;3044;43.232;27.972;2023-08-06T12:52:27;16.23;;;3.83;;
6031;SDS011;3044;43.232;27.972;2023-08-06T12:54:54;10.73;;;4.10;;
6031;SDS011;3044;43.232;27.972;2023-08-06T12:57:21;15.00;;;4.43;;
6031;SDS011;3044;43.232;27.972;2023-08-06T12:59:48;10.93;;;5.00;;
6031;SDS011;3044;43.232;27.972;2023-08-06T13:02:16;5.43;;;4.00;;
6031;SDS011;3044;43.232;27.972;2023-08-06T13:04:43;9.53;;;4.90;;
6031;SDS011;3044;43.232;27.972;2023-08-06T13:07:11;10.40;;;4.63;;
6031;SDS011;3044;43.232;27.972;2023-08-06T13:09:38;5.97;;;4.20;;
6031;SDS011;3044;43.232;27.972;2023-08-06T13:12:06;7.17;;;4.70;;
6031;SDS011;3044;43.232;27.972;2023-08-06T13:14:33;4.37;;;3.93;;
6031;SDS011;3044;43.232;27.972;2023-08-06T13:17:00;6.73;;;4.00;;
6031;SDS011;3044;43.232;27.972;2023-08-06T13:19:27;12.00;;;4.57;;
6031;SDS011;3044;43.232;27.972;2023-08-06T13:21:59;4.60;;;4.20;;
6031;SDS011;3044;43.232;27.972;2023-08-06T13:24:29;8.60;;;4.43;;
6031;SDS011;3044;43.232;27.972;2023-08-06T13:26:56;6.47;;;4.80;;
6031;SDS011;3044;43.232;27.972;2023-08-06T13:29:24;7.00;;;3.63;;
6031;SDS011;3044;43.232;27.972;2023-08-06T13:31:51;9.93;;;4.30;;
6031;SDS011;3044;43.232;27.972;2023-08-06T13:34:18;3.90;;;3.50;;
6031;SDS011;3044;43.232;27.972;2023-08-06T13:36:45;13.03;;;3.40;;
6031;SDS011;3044;43.232;27.972;2023-08-06T13:39:12;10.60;;;4.07;;
6031;SDS011;3044;43.232;27.972;2023-08-06T13:41:43;5.47;;;4.07;;
6031;SDS011;3044;43.232;27.972;2023-08-06T13:44:11;13.67;;;4.33;;
6031;SDS011;3044;43.232;27.972;2023-08-06T13:46:40;4.80;;;4.07;;
6031;SDS011;3044;43.232;27.972;2023-08-06T13:49:07;4.87;;;3.93;;
6031;SDS011;3044;43.232;27.972;2023-08-06T13:51:34;17.57;;;3.80;;
6031;SDS011;3044;43.232;27.972;2023-08-06T13:54:02;7.70;;;3.97;;
6031;SDS011;3044;43.232;27.972;2023-08-06T13:56:29;6.40;;;4.20;;
6031;SDS011;3044;43.232;27.972;2023-08-06T13:58:57;5.17;;;4.30;;
6031;SDS011;3044;43.232;27.972;2023-08-06T14:01:25;3.70;;;3.40;;
6031;SDS011;3044;43.232;27.972;2023-08-06T14:03:52;4.10;;;3.33;;
6031;SDS011;3044;43.232;27.972;2023-08-06T14:06:19;5.40;;;3.10;;
6031;SDS011;3044;43.232;27.972;2023-08-06T14:08:46;8.73;;;3.47;;
6031;SDS011;3044;43.232;27.972;2023-08-06T14:11:14;9.70;;;3.70;;
6031;SDS011;3044;43.232;27.972;2023-08-06T14:13:41;9.17;;;3.57;;
6031;SDS011;3044;43.232;27.972;2023-08-06T14:16:09;10.17;;;3.23;;
6031;SDS011;3044;43.232;27.972;2023-08-06T14:18:36;12.50;;;3.43;;
6031;SDS011;3044;43.232;27.972;2023-08-06T14:21:04;3.60;;;3.30;;
6031;SDS011;3044;43.232;27.972;2023-08-06T14:23:31;6.43;;;3.77;;
6031;SDS011;3044;43.232;27.972;2023-08-06T14:25:58;4.43;;;3.70;;
6031;SDS011;3044;43.232;27.972;2023-08-06T14:28:25;4.50;;;3.40;;
6031;SDS011;3044;43.232;27.972;2023-08-06T14:30:52;4.33;;;3.63;;
6031;SDS011;3044;43.232;27.972;2023-08-06T14:33:22;6.70;;;4.13;;
6031;SDS011;3044;43.232;27.972;2023-08-06T14:35:49;5.43;;;3.43;;
6031;SDS011;3044;43.232;27.972;2023-08-06T14:38:16;11.93;;;4.20;;
6031;SDS011;3044;43.232;27.972;2023-08-06T14:40:44;6.00;;;3.80;;
6031;SDS011;3044;43.232;27.972;2023-08-06T14:43:11;6.87;;;4.30;;
6031;SDS011;3044;43.232;27.972;2023-08-06T14:45:38;3.77;;;3.37;;
6031;SDS011;3044;43.232;27.972;2023-08-06T14:48:06;12.43;;;3.63;;
6031;SDS011;3044;43.232;27.972;2023-08-06T14:50:34;8.30;;;3.53;;
6031;SDS011;3044;43.232;27.972;2023-08-06T14:53:02;14.97;;;4.20;;
6031;SDS011;3044;43.232;27.972;2023-08-06T14:55:29;9.07;;;4.50;;